首页
METAR-TAF:

METAR-TAF

机场 :

盖达尔·阿利耶夫国际机场

巴库, 阿塞拜疆

纬度: 40-27N, 经度: 050-04E, 海拔: -6米

当前天气观测

该预报发布于11分钟前的07:00 UTC
风速22节,风向北转西北
温度 12°C
湿度 54%
气压 1016 hPa
能见度10公里或以上
1500米以下无云,无积雨云

METAR: UBBB 290700Z 33022KT CAVOK 12/03 Q1016 R88/CLRD// NOSIG

时间: 11:11 (07:11 UTC)

预报

该预报发布于1小时和51分钟前的05:20 UTC
预报有效从29日的 06点(UTC)到 01日的 06点(UTC)
风速18节,风向北转西北,有时为28节阵风
能见度10公里或以上
散云层高于2500英尺
多云层高于10000英尺
成为
从 29日的 08点(UTC)到 29日的 10点(UTC)
风速14节,风向
短暂存在
从 29日的 10点(UTC)到 29日的 17点(UTC)
风速10节,风向东北
成为
从 29日的 17点(UTC)到 29日的 19点(UTC)
风速5节,风向东南
散云层高于800英尺
散云层高于2000英尺
短暂存在
从 29日的 19点(UTC)到 01日的 05点(UTC)
风速5节,风向南转南东
能見度: 2000
散云层高于300英尺
轻雾, 碎片雾

TAF: UBBB 290520Z 2906/0106 34018G28KT 9999 SCT025 BKN100 TX11/2911Z TN05/0102Z BECMG 2908/2910 36014KT TEMPO 2910/2917 05010KT BECMG 2917/2919 13005KT SCT008 SCT020 TEMPO 2919/0105 16005KT 2000 BR BCFG SCT003

超过4000个机场的气象观测和天气预报(METAR&TAF报告)。

可查询的气象台以黄色和红色小点在地图上表示。

将鼠标移到小点上方,可查看气象台名称。

然后点击查看天气观测和预报。

如需切换地图:点击带黑十字的绿色按钮放大地图;点击带横线的绿色按钮缩小地图;或者点击绿色箭头查看邻近地区的地图。


METAR-TAF: